sensor_id;sensor_type;location;lat;lon;timestamp;temperature;humidity
32536;DHT22;18974;50.838;4.636;2023-04-24T00:00:46;10.30;99.90
32536;DHT22;18974;50.838;4.636;2023-04-24T00:03:12;10.20;99.90
32536;DHT22;18974;50.838;4.636;2023-04-24T00:05:38;10.20;99.90
32536;DHT22;18974;50.838;4.636;2023-04-24T00:08:06;10.30;99.90
32536;DHT22;18974;50.838;4.636;2023-04-24T00:10:31;10.40;99.90
32536;DHT22;18974;50.838;4.636;2023-04-24T00:12:57;10.40;99.90
32536;DHT22;18974;50.838;4.636;2023-04-24T00:15:23;10.50;99.90
32536;DHT22;18974;50.838;4.636;2023-04-24T00:17:49;10.40;99.90
32536;DHT22;18974;50.838;4.636;2023-04-24T00:20:14;10.30;99.90
32536;DHT22;18974;50.838;4.636;2023-04-24T00:22:40;10.30;99.90
32536;DHT22;18974;50.838;4.636;2023-04-24T00:25:06;10.20;99.90
32536;DHT22;18974;50.838;4.636;2023-04-24T00:27:32;10.20;99.90
32536;DHT22;18974;50.838;4.636;2023-04-24T00:29:58;10.10;99.90
32536;DHT22;18974;50.838;4.636;2023-04-24T00:32:23;10.10;99.90
32536;DHT22;18974;50.838;4.636;2023-04-24T00:34:49;10.10;99.90
32536;DHT22;18974;50.838;4.636;2023-04-24T00:37:15;10.20;99.90
32536;DHT22;18974;50.838;4.636;2023-04-24T00:39:41;10.30;99.90
32536;DHT22;18974;50.838;4.636;2023-04-24T00:42:06;10.30;99.90
32536;DHT22;18974;50.838;4.636;2023-04-24T00:44:35;10.30;99.90
32536;DHT22;18974;50.838;4.636;2023-04-24T00:47:01;10.20;99.90
32536;DHT22;18974;50.838;4.636;2023-04-24T00:49:27;10.20;99.90
32536;DHT22;18974;50.838;4.636;2023-04-24T00:51:53;10.30;99.90
32536;DHT22;18974;50.838;4.636;2023-04-24T00:54:19;10.20;99.90
32536;DHT22;18974;50.838;4.636;2023-04-24T00:56:45;10.20;99.90
32536;DHT22;18974;50.838;4.636;2023-04-24T00:59:12;10.20;99.90
32536;DHT22;18974;50.838;4.636;2023-04-24T01:01:39;10.20;99.90
32536;DHT22;18974;50.838;4.636;2023-04-24T01:04:08;10.30;99.90
32536;DHT22;18974;50.838;4.636;2023-04-24T01:06:36;10.30;99.90
32536;DHT22;18974;50.838;4.636;2023-04-24T01:09:03;10.20;99.90
32536;DHT22;18974;50.838;4.636;2023-04-24T01:11:30;10.20;99.90
32536;DHT22;18974;50.838;4.636;2023-04-24T01:13:56;10.20;99.90
32536;DHT22;18974;50.838;4.636;2023-04-24T01:16:22;10.20;99.90
32536;DHT22;18974;50.838;4.636;2023-04-24T01:18:48;10.20;99.90
32536;DHT22;18974;50.838;4.636;2023-04-24T01:21:15;10.30;99.90
32536;DHT22;18974;50.838;4.636;2023-04-24T01:23:44;10.30;99.90
32536;DHT22;18974;50.838;4.636;2023-04-24T01:26:10;10.30;99.90
32536;DHT22;18974;50.838;4.636;2023-04-24T01:28:37;10.30;99.90
32536;DHT22;18974;50.838;4.636;2023-04-24T01:31:03;10.30;99.90
32536;DHT22;18974;50.838;4.636;2023-04-24T01:33:28;10.20;99.90
32536;DHT22;18974;50.838;4.636;2023-04-24T01:35:54;10.20;99.90
32536;DHT22;18974;50.838;4.636;2023-04-24T01:38:20;10.20;99.90
32536;DHT22;18974;50.838;4.636;2023-04-24T01:40:46;10.20;99.90
32536;DHT22;18974;50.838;4.636;2023-04-24T01:43:12;10.10;99.90
32536;DHT22;18974;50.838;4.636;2023-04-24T01:45:38;10.00;99.90
32536;DHT22;18974;50.838;4.636;2023-04-24T01:48:04;9.90;99.90
32536;DHT22;18974;50.838;4.636;2023-04-24T01:50:30;9.70;99.90
32536;DHT22;18974;50.838;4.636;2023-04-24T01:52:56;9.80;99.90
32536;DHT22;18974;50.838;4.636;2023-04-24T01:55:22;9.70;99.90
32536;DHT22;18974;50.838;4.636;2023-04-24T01:57:48;9.70;99.90
32536;DHT22;18974;50.838;4.636;2023-04-24T02:00:14;9.60;99.90
32536;DHT22;18974;50.838;4.636;2023-04-24T02:02:40;9.50;99.90
32536;DHT22;18974;50.838;4.636;2023-04-24T02:05:07;9.50;99.90
32536;DHT22;18974;50.838;4.636;2023-04-24T02:07:33;9.50;99.90
32536;DHT22;18974;50.838;4.636;2023-04-24T02:09:59;9.40;99.90
32536;DHT22;18974;50.838;4.636;2023-04-24T02:12:24;9.40;99.90
32536;DHT22;18974;50.838;4.636;2023-04-24T02:14:50;9.40;99.90
32536;DHT22;18974;50.838;4.636;2023-04-24T02:17:16;9.40;99.90
32536;DHT22;18974;50.838;4.636;2023-04-24T02:19:42;9.40;99.90
32536;DHT22;18974;50.838;4.636;2023-04-24T02:22:08;9.40;99.90
32536;DHT22;18974;50.838;4.636;2023-04-24T02:24:33;9.40;99.90
32536;DHT22;18974;50.838;4.636;2023-04-24T02:26:59;9.50;99.90
32536;DHT22;18974;50.838;4.636;2023-04-24T02:29:25;9.50;99.90
32536;DHT22;18974;50.838;4.636;2023-04-24T02:31:51;9.50;99.90
32536;DHT22;18974;50.838;4.636;2023-04-24T02:34:16;9.50;99.90
32536;DHT22;18974;50.838;4.636;2023-04-24T02:36:42;9.50;99.90
32536;DHT22;18974;50.838;4.636;2023-04-24T02:39:08;9.60;99.90
32536;DHT22;18974;50.838;4.636;2023-04-24T02:41:33;9.60;99.90
32536;DHT22;18974;50.838;4.636;2023-04-24T02:43:59;9.70;99.90
32536;DHT22;18974;50.838;4.636;2023-04-24T02:46:25;9.60;99.90
32536;DHT22;18974;50.838;4.636;2023-04-24T02:48:51;9.60;99.90
32536;DHT22;18974;50.838;4.636;2023-04-24T02:51:17;9.60;99.90
32536;DHT22;18974;50.838;4.636;2023-04-24T02:53:42;9.50;99.90
32536;DHT22;18974;50.838;4.636;2023-04-24T02:56:08;9.40;99.90
32536;DHT22;18974;50.838;4.636;2023-04-24T02:58:34;9.40;99.90
32536;DHT22;18974;50.838;4.636;2023-04-24T03:01:00;9.40;99.90
32536;DHT22;18974;50.838;4.636;2023-04-24T03:03:26;9.30;99.90
32536;DHT22;18974;50.838;4.636;2023-04-24T03:05:52;9.30;99.90
32536;DHT22;18974;50.838;4.636;2023-04-24T03:08:18;9.30;99.90
32536;DHT22;18974;50.838;4.636;2023-04-24T03:10:44;9.30;99.90
32536;DHT22;18974;50.838;4.636;2023-04-24T03:13:09;9.30;99.90
32536;DHT22;18974;50.838;4.636;2023-04-24T03:15:35;9.40;99.90
32536;DHT22;18974;50.838;4.636;2023-04-24T03:18:01;9.40;99.90
32536;DHT22;18974;50.838;4.636;2023-04-24T03:20:28;9.40;99.90
32536;DHT22;18974;50.838;4.636;2023-04-24T03:22:53;9.40;99.90
32536;DHT22;18974;50.838;4.636;2023-04-24T03:25:19;9.40;99.90
32536;DHT22;18974;50.838;4.636;2023-04-24T03:27:45;9.30;99.90
32536;DHT22;18974;50.838;4.636;2023-04-24T03:30:11;9.40;99.90
32536;DHT22;18974;50.838;4.636;2023-04-24T03:32:37;9.40;99.90
32536;DHT22;18974;50.838;4.636;2023-04-24T03:35:05;9.40;99.90
32536;DHT22;18974;50.838;4.636;2023-04-24T03:37:32;9.40;99.90
32536;DHT22;18974;50.838;4.636;2023-04-24T03:39:58;9.40;99.90
32536;DHT22;18974;50.838;4.636;2023-04-24T03:42:23;9.40;99.90
32536;DHT22;18974;50.838;4.636;2023-04-24T03:44:49;9.50;99.90
32536;DHT22;18974;50.838;4.636;2023-04-24T03:47:15;9.40;99.90
32536;DHT22;18974;50.838;4.636;2023-04-24T03:49:40;9.40;99.90
32536;DHT22;18974;50.838;4.636;2023-04-24T03:52:06;9.30;99.90
32536;DHT22;18974;50.838;4.636;2023-04-24T03:54:32;9.20;99.90
32536;DHT22;18974;50.838;4.636;2023-04-24T03:56:57;9.10;99.90
32536;DHT22;18974;50.838;4.636;2023-04-24T03:59:23;9.10;99.90
32536;DHT22;18974;50.838;4.636;2023-04-24T04:01:49;9.00;99.90
32536;DHT22;18974;50.838;4.636;2023-04-24T04:04:14;9.10;99.90
32536;DHT22;18974;50.838;4.636;2023-04-24T04:06:40;9.10;99.90
32536;DHT22;18974;50.838;4.636;2023-04-24T04:09:06;9.10;99.90
32536;DHT22;18974;50.838;4.636;2023-04-24T04:11:32;9.20;99.90
32536;DHT22;18974;50.838;4.636;2023-04-24T04:13:58;9.00;99.90
32536;DHT22;18974;50.838;4.636;2023-04-24T04:16:24;9.00;99.90
32536;DHT22;18974;50.838;4.636;2023-04-24T04:18:49;9.10;99.90
32536;DHT22;18974;50.838;4.636;2023-04-24T04:21:15;9.00;99.90
32536;DHT22;18974;50.838;4.636;2023-04-24T04:23:41;9.10;99.90
32536;DHT22;18974;50.838;4.636;2023-04-24T04:26:07;9.10;99.90
32536;DHT22;18974;50.838;4.636;2023-04-24T04:28:34;9.10;99.90
32536;DHT22;18974;50.838;4.636;2023-04-24T04:31:00;9.10;99.90
32536;DHT22;18974;50.838;4.636;2023-04-24T04:33:26;9.10;99.90
32536;DHT22;18974;50.838;4.636;2023-04-24T04:35:52;9.20;99.90
32536;DHT22;18974;50.838;4.636;2023-04-24T04:38:19;9.30;99.90
32536;DHT22;18974;50.838;4.636;2023-04-24T04:40:45;9.30;99.90
32536;DHT22;18974;50.838;4.636;2023-04-24T04:43:11;9.30;99.90
32536;DHT22;18974;50.838;4.636;2023-04-24T04:45:38;9.30;99.90
32536;DHT22;18974;50.838;4.636;2023-04-24T04:48:07;9.30;99.90
32536;DHT22;18974;50.838;4.636;2023-04-24T04:50:38;9.30;99.90
32536;DHT22;18974;50.838;4.636;2023-04-24T04:53:04;9.40;99.90
32536;DHT22;18974;50.838;4.636;2023-04-24T04:55:30;9.50;99.90
32536;DHT22;18974;50.838;4.636;2023-04-24T04:57:56;9.60;99.90
32536;DHT22;18974;50.838;4.636;2023-04-24T05:00:22;9.70;99.90
32536;DHT22;18974;50.838;4.636;2023-04-24T05:02:51;9.70;99.90
32536;DHT22;18974;50.838;4.636;2023-04-24T05:05:17;9.70;99.90
32536;DHT22;18974;50.838;4.636;2023-04-24T05:07:43;9.60;99.90
32536;DHT22;18974;50.838;4.636;2023-04-24T05:10:09;9.50;99.90
32536;DHT22;18974;50.838;4.636;2023-04-24T05:12:35;9.50;99.90
32536;DHT22;18974;50.838;4.636;2023-04-24T05:15:00;9.60;99.90
32536;DHT22;18974;50.838;4.636;2023-04-24T05:17:26;9.60;99.90
32536;DHT22;18974;50.838;4.636;2023-04-24T05:19:52;9.60;99.90
32536;DHT22;18974;50.838;4.636;2023-04-24T05:22:17;9.60;99.90
32536;DHT22;18974;50.838;4.636;2023-04-24T05:24:46;9.60;99.90
32536;DHT22;18974;50.838;4.636;2023-04-24T05:27:12;9.60;99.90
32536;DHT22;18974;50.838;4.636;2023-04-24T05:29:38;9.50;99.90
32536;DHT22;18974;50.838;4.636;2023-04-24T05:32:04;9.50;99.90
32536;DHT22;18974;50.838;4.636;2023-04-24T05:34:29;9.50;99.90
32536;DHT22;18974;50.838;4.636;2023-04-24T05:36:55;9.50;99.90
32536;DHT22;18974;50.838;4.636;2023-04-24T05:39:21;9.40;99.90
32536;DHT22;18974;50.838;4.636;2023-04-24T05:41:47;9.30;99.90
32536;DHT22;18974;50.838;4.636;2023-04-24T05:44:12;9.40;99.90
32536;DHT22;18974;50.838;4.636;2023-04-24T05:46:38;9.30;99.90
32536;DHT22;18974;50.838;4.636;2023-04-24T05:49:04;9.30;99.90
32536;DHT22;18974;50.838;4.636;2023-04-24T05:51:29;9.40;99.90
32536;DHT22;18974;50.838;4.636;2023-04-24T05:53:57;9.40;99.90
32536;DHT22;18974;50.838;4.636;2023-04-24T05:56:23;9.40;99.90
32536;DHT22;18974;50.838;4.636;2023-04-24T05:58:49;9.50;99.90
32536;DHT22;18974;50.838;4.636;2023-04-24T06:01:14;9.40;99.90
32536;DHT22;18974;50.838;4.636;2023-04-24T06:03:41;9.40;99.90
32536;DHT22;18974;50.838;4.636;2023-04-24T06:06:07;9.30;99.90
32536;DHT22;18974;50.838;4.636;2023-04-24T06:08:33;9.30;99.90
32536;DHT22;18974;50.838;4.636;2023-04-24T06:10:59;9.30;99.90
32536;DHT22;18974;50.838;4.636;2023-04-24T06:13:24;9.30;99.90
32536;DHT22;18974;50.838;4.636;2023-04-24T06:15:50;9.30;99.90
32536;DHT22;18974;50.838;4.636;2023-04-24T06:18:16;9.30;99.90
32536;DHT22;18974;50.838;4.636;2023-04-24T06:20:42;9.40;99.90
32536;DHT22;18974;50.838;4.636;2023-04-24T06:23:08;9.40;99.90
32536;DHT22;18974;50.838;4.636;2023-04-24T06:25:34;9.40;99.90
32536;DHT22;18974;50.838;4.636;2023-04-24T06:28:00;9.30;99.90
32536;DHT22;18974;50.838;4.636;2023-04-24T06:30:27;9.20;99.90
32536;DHT22;18974;50.838;4.636;2023-04-24T06:32:53;9.10;99.90
32536;DHT22;18974;50.838;4.636;2023-04-24T06:35:19;9.10;99.90
32536;DHT22;18974;50.838;4.636;2023-04-24T06:37:45;9.10;99.90
32536;DHT22;18974;50.838;4.636;2023-04-24T06:40:11;9.20;99.90
32536;DHT22;18974;50.838;4.636;2023-04-24T06:42:37;9.20;99.90
32536;DHT22;18974;50.838;4.636;2023-04-24T06:45:03;9.10;99.90
32536;DHT22;18974;50.838;4.636;2023-04-24T06:47:29;9.20;99.90
32536;DHT22;18974;50.838;4.636;2023-04-24T06:49:54;9.20;99.90
32536;DHT22;18974;50.838;4.636;2023-04-24T06:52:21;9.20;99.90
32536;DHT22;18974;50.838;4.636;2023-04-24T06:54:46;9.30;99.90
32536;DHT22;18974;50.838;4.636;2023-04-24T06:57:12;9.30;99.90
32536;DHT22;18974;50.838;4.636;2023-04-24T06:59:38;9.30;99.90
32536;DHT22;18974;50.838;4.636;2023-04-24T07:02:11;9.30;99.90
32536;DHT22;18974;50.838;4.636;2023-04-24T07:04:37;9.30;99.90
32536;DHT22;18974;50.838;4.636;2023-04-24T07:07:03;9.50;99.90
32536;DHT22;18974;50.838;4.636;2023-04-24T07:09:29;9.50;99.90
32536;DHT22;18974;50.838;4.636;2023-04-24T07:11:55;9.50;99.90
32536;DHT22;18974;50.838;4.636;2023-04-24T07:14:21;9.60;99.90
32536;DHT22;18974;50.838;4.636;2023-04-24T07:16:47;9.60;99.90
32536;DHT22;18974;50.838;4.636;2023-04-24T07:19:13;9.70;99.90
32536;DHT22;18974;50.838;4.636;2023-04-24T07:21:39;9.80;99.90
32536;DHT22;18974;50.838;4.636;2023-04-24T07:24:05;9.90;99.90
32536;DHT22;18974;50.838;4.636;2023-04-24T07:26:34;9.90;99.90
32536;DHT22;18974;50.838;4.636;2023-04-24T07:29:00;9.90;99.90
32536;DHT22;18974;50.838;4.636;2023-04-24T07:31:26;9.80;99.90
32536;DHT22;18974;50.838;4.636;2023-04-24T07:33:51;9.90;99.90
32536;DHT22;18974;50.838;4.636;2023-04-24T07:36:17;9.90;99.90
32536;DHT22;18974;50.838;4.636;2023-04-24T07:38:45;9.90;99.90
32536;DHT22;18974;50.838;4.636;2023-04-24T07:41:11;9.80;99.90
32536;DHT22;18974;50.838;4.636;2023-04-24T07:43:37;9.80;99.90
32536;DHT22;18974;50.838;4.636;2023-04-24T07:46:02;9.70;99.90
32536;DHT22;18974;50.838;4.636;2023-04-24T07:48:28;9.70;99.90
32536;DHT22;18974;50.838;4.636;2023-04-24T07:50:54;9.70;99.90
32536;DHT22;18974;50.838;4.636;2023-04-24T07:53:20;9.70;99.90
32536;DHT22;18974;50.838;4.636;2023-04-24T07:55:46;9.80;99.90
32536;DHT22;18974;50.838;4.636;2023-04-24T07:58:11;9.80;99.90
32536;DHT22;18974;50.838;4.636;2023-04-24T08:00:37;9.90;99.90
32536;DHT22;18974;50.838;4.636;2023-04-24T08:03:03;10.10;99.90
32536;DHT22;18974;50.838;4.636;2023-04-24T08:05:28;10.20;99.90
32536;DHT22;18974;50.838;4.636;2023-04-24T08:07:55;10.30;99.90
32536;DHT22;18974;50.838;4.636;2023-04-24T08:10:22;10.50;99.90
32536;DHT22;18974;50.838;4.636;2023-04-24T08:12:48;10.80;99.90
32536;DHT22;18974;50.838;4.636;2023-04-24T08:15:13;11.30;99.90
32536;DHT22;18974;50.838;4.636;2023-04-24T08:17:39;11.60;99.90
32536;DHT22;18974;50.838;4.636;2023-04-24T08:20:06;11.60;99.90
32536;DHT22;18974;50.838;4.636;2023-04-24T08:22:35;11.50;99.90
32536;DHT22;18974;50.838;4.636;2023-04-24T08:25:01;11.60;99.90
32536;DHT22;18974;50.838;4.636;2023-04-24T08:27:27;11.70;99.90
32536;DHT22;18974;50.838;4.636;2023-04-24T08:29:54;11.90;99.90
32536;DHT22;18974;50.838;4.636;2023-04-24T08:32:20;11.90;99.90
32536;DHT22;18974;50.838;4.636;2023-04-24T08:34:45;11.90;99.90
32536;DHT22;18974;50.838;4.636;2023-04-24T08:37:11;11.90;99.90
32536;DHT22;18974;50.838;4.636;2023-04-24T08:39:37;12.00;99.90
32536;DHT22;18974;50.838;4.636;2023-04-24T08:42:04;12.20;99.90
32536;DHT22;18974;50.838;4.636;2023-04-24T08:44:33;12.30;99.90
32536;DHT22;18974;50.838;4.636;2023-04-24T08:47:01;12.20;99.90
32536;DHT22;18974;50.838;4.636;2023-04-24T08:49:28;12.30;99.90
32536;DHT22;18974;50.838;4.636;2023-04-24T08:51:54;12.40;99.90
32536;DHT22;18974;50.838;4.636;2023-04-24T08:54:21;12.70;99.90
32536;DHT22;18974;50.838;4.636;2023-04-24T08:56:48;12.90;99.90
32536;DHT22;18974;50.838;4.636;2023-04-24T08:59:17;13.30;99.90
32536;DHT22;18974;50.838;4.636;2023-04-24T09:01:45;13.50;99.90
32536;DHT22;18974;50.838;4.636;2023-04-24T09:04:12;13.40;99.90
32536;DHT22;18974;50.838;4.636;2023-04-24T09:06:40;13.40;99.90
32536;DHT22;18974;50.838;4.636;2023-04-24T09:09:06;13.50;99.90
32536;DHT22;18974;50.838;4.636;2023-04-24T09:11:32;13.50;99.90
32536;DHT22;18974;50.838;4.636;2023-04-24T09:13:58;13.40;99.90
32536;DHT22;18974;50.838;4.636;2023-04-24T09:16:25;13.40;99.90
32536;DHT22;18974;50.838;4.636;2023-04-24T09:18:51;13.60;99.90
32536;DHT22;18974;50.838;4.636;2023-04-24T09:21:18;13.70;99.90
32536;DHT22;18974;50.838;4.636;2023-04-24T09:23:45;13.60;99.90
32536;DHT22;18974;50.838;4.636;2023-04-24T09:26:11;13.70;99.90
32536;DHT22;18974;50.838;4.636;2023-04-24T09:28:41;13.70;99.90
32536;DHT22;18974;50.838;4.636;2023-04-24T09:31:14;13.90;99.90
32536;DHT22;18974;50.838;4.636;2023-04-24T09:34:02;14.00;99.90
32536;DHT22;18974;50.838;4.636;2023-04-24T09:36:36;14.20;99.90
32536;DHT22;18974;50.838;4.636;2023-04-24T09:39:07;14.30;99.90
32536;DHT22;18974;50.838;4.636;2023-04-24T09:41:35;14.20;99.90
32536;DHT22;18974;50.838;4.636;2023-04-24T09:44:22;14.10;99.90
32536;DHT22;18974;50.838;4.636;2023-04-24T09:46:56;14.30;99.90
32536;DHT22;18974;50.838;4.636;2023-04-24T09:49:24;14.20;99.90
32536;DHT22;18974;50.838;4.636;2023-04-24T09:51:50;14.20;99.90
32536;DHT22;18974;50.838;4.636;2023-04-24T09:54:18;14.30;99.90
32536;DHT22;18974;50.838;4.636;2023-04-24T09:56:48;14.10;99.90
32536;DHT22;18974;50.838;4.636;2023-04-24T09:59:16;14.10;99.90
32536;DHT22;18974;50.838;4.636;2023-04-24T10:01:41;14.20;99.90
32536;DHT22;18974;50.838;4.636;2023-04-24T10:04:25;14.10;99.90
32536;DHT22;18974;50.838;4.636;2023-04-24T10:06:53;14.10;99.90
32536;DHT22;18974;50.838;4.636;2023-04-24T10:09:21;14.20;99.90
32536;DHT22;18974;50.838;4.636;2023-04-24T10:11:49;14.40;99.90
32536;DHT22;18974;50.838;4.636;2023-04-24T10:14:19;14.70;99.90
32536;DHT22;18974;50.838;4.636;2023-04-24T10:16:46;14.90;99.90
32536;DHT22;18974;50.838;4.636;2023-04-24T10:19:13;15.20;99.90
32536;DHT22;18974;50.838;4.636;2023-04-24T10:21:41;15.40;99.90
32536;DHT22;18974;50.838;4.636;2023-04-24T10:24:12;15.70;99.90
32536;DHT22;18974;50.838;4.636;2023-04-24T10:26:38;15.80;99.90
32536;DHT22;18974;50.838;4.636;2023-04-24T10:29:05;15.90;99.90
32536;DHT22;18974;50.838;4.636;2023-04-24T10:31:36;16.00;99.90
32536;DHT22;18974;50.838;4.636;2023-04-24T10:34:03;16.00;99.90
32536;DHT22;18974;50.838;4.636;2023-04-24T10:36:30;15.80;99.90
32536;DHT22;18974;50.838;4.636;2023-04-24T10:38:59;15.90;99.90
32536;DHT22;18974;50.838;4.636;2023-04-24T10:41:26;16.00;99.90
32536;DHT22;18974;50.838;4.636;2023-04-24T10:44:09;16.10;99.90
32536;DHT22;18974;50.838;4.636;2023-04-24T10:46:35;15.70;99.90
32536;DHT22;18974;50.838;4.636;2023-04-24T10:49:10;15.30;99.90
32536;DHT22;18974;50.838;4.636;2023-04-24T10:51:50;14.70;99.90
32536;DHT22;18974;50.838;4.636;2023-04-24T10:54:50;14.50;99.90
32536;DHT22;18974;50.838;4.636;2023-04-24T10:59:49;15.50;99.90
32536;DHT22;18974;50.838;4.636;2023-04-24T11:02:16;15.90;99.90
32536;DHT22;18974;50.838;4.636;2023-04-24T11:04:42;16.20;99.90
32536;DHT22;18974;50.838;4.636;2023-04-24T11:07:09;15.90;99.90
32536;DHT22;18974;50.838;4.636;2023-04-24T11:09:36;16.00;99.90
32536;DHT22;18974;50.838;4.636;2023-04-24T11:12:11;15.90;99.90
32536;DHT22;18974;50.838;4.636;2023-04-24T11:17:50;16.10;99.90
32536;DHT22;18974;50.838;4.636;2023-04-24T11:20:23;16.00;99.90
32536;DHT22;18974;50.838;4.636;2023-04-24T11:22:53;16.00;99.90
32536;DHT22;18974;50.838;4.636;2023-04-24T11:25:21;15.90;99.90
32536;DHT22;18974;50.838;4.636;2023-04-24T11:27:48;15.60;99.90
32536;DHT22;18974;50.838;4.636;2023-04-24T11:30:19;15.30;99.90
32536;DHT22;18974;50.838;4.636;2023-04-24T11:32:50;15.20;99.90
32536;DHT22;18974;50.838;4.636;2023-04-24T11:37:52;15.10;99.90
32536;DHT22;18974;50.838;4.636;2023-04-24T11:40:19;15.30;99.90
32536;DHT22;18974;50.838;4.636;2023-04-24T11:42:52;15.70;99.90
32536;DHT22;18974;50.838;4.636;2023-04-24T11:45:31;15.70;99.90
32536;DHT22;18974;50.838;4.636;2023-04-24T11:47:57;15.80;99.90
32536;DHT22;18974;50.838;4.636;2023-04-24T11:50:25;16.10;99.90
32536;DHT22;18974;50.838;4.636;2023-04-24T11:52:52;16.30;99.90
32536;DHT22;18974;50.838;4.636;2023-04-24T12:00:21;16.60;99.90
32536;DHT22;18974;50.838;4.636;2023-04-24T12:02:47;16.30;99.90
32536;DHT22;18974;50.838;4.636;2023-04-24T12:05:24;16.20;99.90
32536;DHT22;18974;50.838;4.636;2023-04-24T12:07:51;16.50;99.90
32536;DHT22;18974;50.838;4.636;2023-04-24T12:10:25;16.90;99.90
32536;DHT22;18974;50.838;4.636;2023-04-24T12:12:52;17.20;99.90
32536;DHT22;18974;50.838;4.636;2023-04-24T12:15:21;17.20;99.90
32536;DHT22;18974;50.838;4.636;2023-04-24T12:17:49;17.20;99.90
32536;DHT22;18974;50.838;4.636;2023-04-24T12:20:15;16.80;99.90
32536;DHT22;18974;50.838;4.636;2023-04-24T12:22:59;16.60;99.90
32536;DHT22;18974;50.838;4.636;2023-04-24T12:25:34;16.50;99.90
32536;DHT22;18974;50.838;4.636;2023-04-24T12:30:33;16.70;99.90
32536;DHT22;18974;50.838;4.636;2023-04-24T12:32:59;16.50;99.90
32536;DHT22;18974;50.838;4.636;2023-04-24T12:35:29;16.20;99.90
32536;DHT22;18974;50.838;4.636;2023-04-24T12:38:06;16.40;99.90
32536;DHT22;18974;50.838;4.636;2023-04-24T12:40:33;17.10;99.90
32536;DHT22;18974;50.838;4.636;2023-04-24T12:43:02;17.70;99.90
32536;DHT22;18974;50.838;4.636;2023-04-24T12:45:37;18.20;99.90
32536;DHT22;18974;50.838;4.636;2023-04-24T12:48:03;18.50;99.90
32536;DHT22;18974;50.838;4.636;2023-04-24T12:50:29;18.50;99.90
32536;DHT22;18974;50.838;4.636;2023-04-24T12:52:54;18.70;99.90
32536;DHT22;18974;50.838;4.636;2023-04-24T12:55:20;18.10;99.90
32536;DHT22;18974;50.838;4.636;2023-04-24T12:57:46;18.20;99.90
32536;DHT22;18974;50.838;4.636;2023-04-24T13:00:12;18.30;99.90
32536;DHT22;18974;50.838;4.636;2023-04-24T13:02:38;18.70;99.90
32536;DHT22;18974;50.838;4.636;2023-04-24T13:05:04;18.70;99.90
32536;DHT22;18974;50.838;4.636;2023-04-24T13:07:30;18.80;99.90
32536;DHT22;18974;50.838;4.636;2023-04-24T13:09:56;18.70;99.90
32536;DHT22;18974;50.838;4.636;2023-04-24T13:12:23;19.10;99.90
32536;DHT22;18974;50.838;4.636;2023-04-24T13:14:52;19.20;99.90
32536;DHT22;18974;50.838;4.636;2023-04-24T13:17:17;19.20;99.90
32536;DHT22;18974;50.838;4.636;2023-04-24T13:19:43;19.30;99.90
32536;DHT22;18974;50.838;4.636;2023-04-24T13:22:11;19.30;99.90
32536;DHT22;18974;50.838;4.636;2023-04-24T13:24:37;19.10;99.90
32536;DHT22;18974;50.838;4.636;2023-04-24T13:27:05;18.60;99.90
32536;DHT22;18974;50.838;4.636;2023-04-24T13:29:31;18.30;99.90
32536;DHT22;18974;50.838;4.636;2023-04-24T13:31:56;18.30;99.90
32536;DHT22;18974;50.838;4.636;2023-04-24T13:34:25;18.40;99.90
32536;DHT22;18974;50.838;4.636;2023-04-24T13:36:53;18.30;99.90
32536;DHT22;18974;50.838;4.636;2023-04-24T13:39:20;18.20;99.90
32536;DHT22;18974;50.838;4.636;2023-04-24T13:41:46;18.10;99.90
32536;DHT22;18974;50.838;4.636;2023-04-24T13:44:16;18.10;99.90
32536;DHT22;18974;50.838;4.636;2023-04-24T13:46:43;18.00;99.90
32536;DHT22;18974;50.838;4.636;2023-04-24T13:49:11;17.90;99.90
32536;DHT22;18974;50.838;4.636;2023-04-24T13:51:36;18.00;99.90
32536;DHT22;18974;50.838;4.636;2023-04-24T13:54:02;17.80;99.90
32536;DHT22;18974;50.838;4.636;2023-04-24T13:56:28;17.70;99.90
32536;DHT22;18974;50.838;4.636;2023-04-24T13:58:53;17.60;99.90
32536;DHT22;18974;50.838;4.636;2023-04-24T14:01:20;17.50;99.90
32536;DHT22;18974;50.838;4.636;2023-04-24T14:03:49;17.60;99.90
32536;DHT22;18974;50.838;4.636;2023-04-24T14:06:15;17.50;99.90
32536;DHT22;18974;50.838;4.636;2023-04-24T14:08:41;17.40;99.90
32536;DHT22;18974;50.838;4.636;2023-04-24T14:11:07;17.50;99.90
32536;DHT22;18974;50.838;4.636;2023-04-24T14:13:32;17.40;99.90
32536;DHT22;18974;50.838;4.636;2023-04-24T14:15:58;17.50;99.90
32536;DHT22;18974;50.838;4.636;2023-04-24T14:18:24;17.80;99.90
32536;DHT22;18974;50.838;4.636;2023-04-24T14:20:49;18.00;99.90
32536;DHT22;18974;50.838;4.636;2023-04-24T14:23:15;18.10;99.90
32536;DHT22;18974;50.838;4.636;2023-04-24T14:25:41;18.00;99.90
32536;DHT22;18974;50.838;4.636;2023-04-24T14:28:10;17.80;99.90
32536;DHT22;18974;50.838;4.636;2023-04-24T14:30:35;17.60;99.90
32536;DHT22;18974;50.838;4.636;2023-04-24T14:33:03;17.50;99.90
32536;DHT22;18974;50.838;4.636;2023-04-24T14:35:29;17.70;99.90
32536;DHT22;18974;50.838;4.636;2023-04-24T14:37:56;17.90;99.90
32536;DHT22;18974;50.838;4.636;2023-04-24T14:40:22;18.00;99.90
32536;DHT22;18974;50.838;4.636;2023-04-24T14:42:48;17.70;99.90
32536;DHT22;18974;50.838;4.636;2023-04-24T14:45:15;17.50;99.90
32536;DHT22;18974;50.838;4.636;2023-04-24T14:47:41;17.30;99.90
32536;DHT22;18974;50.838;4.636;2023-04-24T14:50:07;17.40;99.90
32536;DHT22;18974;50.838;4.636;2023-04-24T14:52:33;17.20;99.90
32536;DHT22;18974;50.838;4.636;2023-04-24T14:55:00;17.20;99.90
32536;DHT22;18974;50.838;4.636;2023-04-24T14:57:25;16.90;99.90
32536;DHT22;18974;50.838;4.636;2023-04-24T14:59:51;16.80;99.90
32536;DHT22;18974;50.838;4.636;2023-04-24T15:02:17;16.70;99.90
32536;DHT22;18974;50.838;4.636;2023-04-24T15:04:43;16.50;99.90
32536;DHT22;18974;50.838;4.636;2023-04-24T15:07:09;16.40;99.90
32536;DHT22;18974;50.838;4.636;2023-04-24T15:09:34;16.30;99.90
32536;DHT22;18974;50.838;4.636;2023-04-24T15:12:00;16.40;99.90
32536;DHT22;18974;50.838;4.636;2023-04-24T15:14:27;16.30;99.90
32536;DHT22;18974;50.838;4.636;2023-04-24T15:16:53;16.20;99.90
32536;DHT22;18974;50.838;4.636;2023-04-24T15:19:18;16.10;99.90
32536;DHT22;18974;50.838;4.636;2023-04-24T15:21:44;16.00;99.90
32536;DHT22;18974;50.838;4.636;2023-04-24T15:24:10;16.00;99.90
32536;DHT22;18974;50.838;4.636;2023-04-24T15:26:36;15.90;99.90
32536;DHT22;18974;50.838;4.636;2023-04-24T15:29:02;16.00;99.90
32536;DHT22;18974;50.838;4.636;2023-04-24T15:31:27;16.00;99.90
32536;DHT22;18974;50.838;4.636;2023-04-24T15:33:53;16.00;99.90
32536;DHT22;18974;50.838;4.636;2023-04-24T15:36:19;16.20;99.90
32536;DHT22;18974;50.838;4.636;2023-04-24T15:38:46;16.40;99.90
32536;DHT22;18974;50.838;4.636;2023-04-24T15:41:12;16.30;99.90
32536;DHT22;18974;50.838;4.636;2023-04-24T15:43:38;16.50;99.90
32536;DHT22;18974;50.838;4.636;2023-04-24T15:46:06;16.50;99.90
32536;DHT22;18974;50.838;4.636;2023-04-24T15:48:32;16.40;99.90
32536;DHT22;18974;50.838;4.636;2023-04-24T15:50:58;16.20;99.90